Time;durP1;ratioP1;P1;durP2;ratioP2;P2;SDS_P1;SDS_P2;PMS_P1;PMS_P2;Temp;Humidity;BMP_temperature;BMP_pressure;BME280_temperature;BME280_humidity;BME280_pressure;Samples;Min_cycle;Max_cycle;Signal;HPM_P1;HPM_P2
2022/03/19 00:01:02;;;;;;;15.87;7.00;;;;;;;-6.30;100.00;102530.03;1711400;84;21087;-75
2022/03/19 00:03:29;;;;;;;17.70;8.33;;;;;;;-6.34;100.00;102525.66;1703443;84;21524;-76
2022/03/19 00:05:56;;;;;;;30.43;15.87;;;;;;;-6.36;100.00;102518.18;1711498;84;21044;-77
2022/03/19 00:08:23;;;;;;;56.23;32.97;;;;;;;-6.39;100.00;102510.31;1671594;84;21043;-76
2022/03/19 00:10:52;;;;;;;44.67;24.93;;;;;;;-6.40;100.00;102512.49;1698981;84;21130;-75
2022/03/19 00:13:20;;;;;;;33.07;17.03;;;;;;;-6.41;100.00;102505.91;1698979;84;21034;-75
2022/03/19 00:15:47;;;;;;;26.63;12.70;;;;;;;-6.43;100.00;102495.82;1721740;83;20998;-75
2022/03/19 00:18:14;;;;;;;18.17;8.63;;;;;;;-6.44;100.00;102498.91;1721650;83;21061;-75
2022/03/19 00:20:42;;;;;;;16.63;7.63;;;;;;;-6.47;100.00;102496.72;1721474;83;21551;-75
2022/03/19 00:23:09;;;;;;;14.53;6.50;;;;;;;-6.50;100.00;102500.21;1721418;83;21574;-75
2022/03/19 00:25:35;;;;;;;14.93;6.30;;;;;;;-6.52;100.00;102505.92;1721875;83;21093;-74
2022/03/19 00:28:03;;;;;;;13.43;6.23;;;;;;;-6.54;100.00;102503.73;1721888;83;21039;-75
2022/03/19 00:30:31;;;;;;;13.63;6.30;;;;;;;-6.57;100.00;102504.63;1721751;83;21085;-75
2022/03/19 00:32:58;;;;;;;12.40;5.83;;;;;;;-6.59;100.00;102503.73;1721521;83;21513;-76
2022/03/19 00:35:32;;;;;;;15.03;6.70;;;;;;;-6.60;100.00;102493.23;1721807;82;21125;-75
2022/03/19 00:37:59;;;;;;;14.57;6.50;;;;;;;-6.62;100.00;102500.22;1721668;83;21062;-75
2022/03/19 00:40:26;;;;;;;13.27;6.27;;;;;;;-6.63;100.00;102503.75;1722490;83;21082;-75
2022/03/19 00:42:53;;;;;;;13.77;6.10;;;;;;;-6.65;100.00;102498.93;1722729;83;21038;-75
2022/03/19 00:45:20;;;;;;;14.17;6.40;;;;;;;-6.66;100.00;102491.90;1722043;83;21086;-75
2022/03/19 00:47:47;;;;;;;17.57;6.70;;;;;;;-6.67;100.00;102491.03;1721818;83;21011;-75
2022/03/19 00:50:14;;;;;;;16.17;6.70;;;;;;;-6.68;100.00;102496.71;1721933;83;21077;-76
2022/03/19 00:52:48;;;;;;;17.83;7.30;;;;;;;-6.69;100.00;102490.16;1721510;83;21081;-76
2022/03/19 00:55:16;;;;;;;15.20;6.40;;;;;;;-6.70;100.00;102493.66;1721655;83;21050;-75
2022/03/19 00:57:45;;;;;;;16.73;7.30;;;;;;;-6.73;100.00;102483.13;1721671;83;21457;-76
2022/03/19 01:00:13;;;;;;;16.67;6.87;;;;;;;-6.74;100.00;102487.97;1721677;83;21019;-75
2022/03/19 01:02:43;;;;;;;15.13;6.67;;;;;;;-6.76;100.00;102472.62;1721394;83;21075;-75
2022/03/19 01:05:12;;;;;;;13.80;6.30;;;;;;;-6.78;100.00;102468.67;1721390;83;21078;-75
2022/03/19 01:07:47;;;;;;;16.40;6.40;;;;;;;-6.77;100.00;102476.12;1721424;83;21034;-75
2022/03/19 01:10:22;;;;;;;14.87;6.80;;;;;;;-6.77;100.00;102473.48;1658357;86;21577;-75
2022/03/19 01:12:52;;;;;;;14.43;6.60;;;;;;;-6.76;100.00;102472.62;1658228;86;21161;-75
2022/03/19 01:15:20;;;;;;;13.90;6.30;;;;;;;-6.77;100.00;102467.78;1663610;86;21578;-75
2022/03/19 01:17:48;;;;;;;16.43;6.77;;;;;;;-6.78;100.00;102472.62;1658136;86;21066;-75
2022/03/19 01:20:16;;;;;;;14.03;6.97;;;;;;;-6.80;100.00;102470.84;1658094;86;21635;-75
2022/03/19 01:22:45;;;;;;;16.47;6.73;;;;;;;-6.80;100.00;102470.84;1635302;88;21103;-74
2022/03/19 01:25:12;;;;;;;16.10;6.63;;;;;;;-6.83;100.00;102473.06;1658332;86;21038;-74
2022/03/19 01:27:41;;;;;;;16.37;6.53;;;;;;;-6.88;100.00;102475.67;1658048;86;21568;-75
2022/03/19 01:30:08;;;;;;;17.20;7.40;;;;;;;-6.91;100.00;102469.54;1635350;88;21006;-74
2022/03/19 01:32:35;;;;;;;13.70;6.60;;;;;;;-6.94;100.00;102477.00;1658113;86;21059;-75
2022/03/19 01:35:04;;;;;;;16.00;6.90;;;;;;;-6.95;100.00;102491.47;1658242;86;21058;-75
2022/03/19 01:37:31;;;;;;;16.03;6.77;;;;;;;-6.97;100.00;102487.97;1639665;87;21149;-74
2022/03/19 01:39:58;;;;;;;18.13;7.20;;;;;;;-6.99;100.00;102487.95;1666930;86;21078;-76
2022/03/19 01:42:26;;;;;;;17.77;7.20;;;;;;;-7.00;100.00;102489.27;1653949;87;21080;-75
2022/03/19 01:44:54;;;;;;;15.67;6.60;;;;;;;-7.01;100.00;102477.87;1653998;87;21105;-74
2022/03/19 01:47:21;;;;;;;16.70;7.17;;;;;;;-7.01;100.00;102476.56;1654262;87;21144;-74
2022/03/19 01:49:48;;;;;;;17.47;7.67;;;;;;;-6.98;100.00;102476.99;1654212;87;21546;-75
2022/03/19 01:52:16;;;;;;;16.17;6.80;;;;;;;-6.96;100.00;102478.73;1653950;87;21122;-75
2022/03/19 01:54:46;;;;;;;14.57;6.47;;;;;;;-6.96;100.00;102476.10;1654007;87;21157;-75
2022/03/19 01:57:18;;;;;;;14.63;6.70;;;;;;;-6.94;100.00;102480.95;1654119;87;21148;-74
2022/03/19 01:59:47;;;;;;;15.95;6.72;;;;;;;-6.94;100.00;102480.05;1654292;87;21554;-75
2022/03/19 02:02:14;;;;;;;17.50;7.50;;;;;;;-6.95;100.00;102479.19;1654287;87;21068;-75
2022/03/19 02:04:42;;;;;;;16.87;7.23;;;;;;;-6.97;100.00;102475.68;1654042;87;21108;-75
2022/03/19 02:07:11;;;;;;;15.30;7.37;;;;;;;-6.97;100.00;102482.70;1699432;81;21469;-75
2022/03/19 02:09:40;;;;;;;18.00;8.00;;;;;;;-6.99;100.00;102486.64;1736532;83;21037;-75
2022/03/19 02:12:09;;;;;;;16.20;7.60;;;;;;;-7.03;100.00;102487.50;1770558;81;21048;-74
2022/03/19 02:14:39;;;;;;;16.37;7.70;;;;;;;-7.06;100.00;102481.81;1770890;81;21028;-75
2022/03/19 02:17:07;;;;;;;15.80;7.53;;;;;;;-7.07;100.00;102481.36;1770765;81;21033;-75
2022/03/19 02:19:34;;;;;;;16.37;7.20;;;;;;;-7.08;100.00;102487.52;1770900;81;21028;-74
2022/03/19 02:22:00;;;;;;;15.63;7.17;;;;;;;-7.12;100.00;102476.98;1770780;81;21601;-74
2022/03/19 02:27:15;;;;;;;14.67;6.83;;;;;;;-7.18;100.00;102485.74;1770834;81;20997;-75
2022/03/19 02:29:42;;;;;;;18.63;6.97;;;;;;;-7.22;100.00;102481.36;1770649;81;21044;-75
2022/03/19 02:32:08;;;;;;;14.93;6.83;;;;;;;-7.26;100.00;102483.11;1770814;81;21025;-75
2022/03/19 02:34:37;;;;;;;15.43;7.17;;;;;;;-7.29;100.00;102477.84;1770869;81;21026;-75
2022/03/19 02:37:04;;;;;;;16.77;6.83;;;;;;;-7.31;100.00;102471.70;1775937;79;21069;-74
2022/03/19 02:39:32;;;;;;;16.03;7.07;;;;;;;-7.32;100.00;102475.20;1778990;79;21152;-74
2022/03/19 02:42:04;;;;;;;18.57;7.33;;;;;;;-7.33;100.00;102477.41;1804400;79;21017;-74
2022/03/19 02:44:32;;;;;;;18.62;7.15;;;;;;;-7.35;100.00;102475.62;1749669;82;21499;-74
2022/03/19 02:47:05;;;;;;;15.80;6.57;;;;;;;-7.36;100.00;102478.70;1749331;82;21029;-74
2022/03/19 02:49:32;;;;;;;16.47;6.53;;;;;;;-7.38;100.00;102479.14;1749565;82;21050;-74
2022/03/19 02:51:58;;;;;;;14.77;6.73;;;;;;;-7.40;100.00;102480.00;1749447;82;21029;-74
2022/03/19 02:54:29;;;;;;;11.53;5.80;;;;;;;-7.40;100.00;102476.95;1749462;82;21056;-74
2022/03/19 02:56:58;;;;;;;14.40;6.70;;;;;;;-7.41;100.00;102486.14;1660536;86;21102;-75
2022/03/19 02:59:33;;;;;;;14.43;6.60;;;;;;;-7.42;100.00;102477.36;1660397;86;21054;-74
2022/03/19 03:02:03;;;;;;;19.57;7.93;;;;;;;-7.43;100.00;102480.02;1660429;86;21512;-73
2022/03/19 03:04:30;;;;;;;18.63;8.37;;;;;;;-7.43;100.00;102485.27;1639097;87;21046;-75
2022/03/19 03:07:03;;;;;;;19.27;7.93;;;;;;;-7.44;100.00;102483.05;1639369;87;21085;-74
2022/03/19 03:09:31;;;;;;;19.23;7.60;;;;;;;-7.43;100.00;102479.56;1593604;90;21089;-75
2022/03/19 03:12:01;;;;;;;19.17;7.40;;;;;;;-7.44;100.00;102481.74;1593470;90;21094;-74
2022/03/19 03:14:30;;;;;;;19.17;7.73;;;;;;;-7.46;100.00;102484.81;1593508;90;21118;-74
2022/03/19 03:17:00;;;;;;;16.63;7.40;;;;;;;-7.47;100.00;102487.88;1593531;90;21548;-75
2022/03/19 03:19:27;;;;;;;20.80;8.30;;;;;;;-7.48;100.00;102483.93;1593550;90;21066;-74
2022/03/19 03:21:53;;;;;;;20.43;8.47;;;;;;;-7.51;100.00;102486.09;1593406;90;21038;-74
2022/03/19 03:24:22;;;;;;;20.13;7.73;;;;;;;-7.51;100.00;102489.17;1593452;89;21110;-74
2022/03/19 03:26:49;;;;;;;22.63;7.43;;;;;;;-7.51;100.00;102491.35;1593573;90;21094;-74
2022/03/19 03:29:17;;;;;;;19.53;8.33;;;;;;;-7.50;100.00;102486.55;1593432;90;21023;-74
2022/03/19 03:31:44;;;;;;;17.50;7.03;;;;;;;-7.49;100.00;102495.30;1593369;89;21107;-74
2022/03/19 03:34:11;;;;;;;19.43;7.93;;;;;;;-7.51;100.00;102497.05;1599581;89;21133;-74
2022/03/19 03:36:37;;;;;;;21.47;7.23;;;;;;;-7.51;100.00;102499.69;1634055;87;21090;-74
2022/03/19 03:39:06;;;;;;;19.30;8.20;;;;;;;-7.52;100.00;102506.70;1624626;88;21071;-74
2022/03/19 03:41:33;;;;;;;17.77;8.00;;;;;;;-7.54;100.00;102501.88;1602207;88;21119;-75
2022/03/19 03:44:03;;;;;;;24.00;10.07;;;;;;;-7.55;100.00;102502.73;1578668;91;21588;-75
2022/03/19 03:46:32;;;;;;;45.57;19.10;;;;;;;-7.55;100.00;102509.76;1580039;91;21134;-75
2022/03/19 03:48:58;;;;;;;39.27;16.50;;;;;;;-7.57;100.00;102509.75;1622315;88;21015;-75
2022/03/19 03:51:27;;;;;;;25.23;10.90;;;;;;;-7.57;100.00;102508.43;1622009;88;21560;-74
2022/03/19 03:53:54;;;;;;;30.37;11.67;;;;;;;-7.55;100.00;102517.64;1647482;86;21083;-74
2022/03/19 03:56:21;;;;;;;23.07;11.23;;;;;;;-7.55;100.00;102516.33;1665608;86;21065;-74
2022/03/19 03:58:48;;;;;;;23.10;11.87;;;;;;;-7.58;100.00;102512.37;1665604;86;21054;-75
2022/03/19 04:01:16;;;;;;;19.70;9.60;;;;;;;-7.61;100.00;102511.94;1704499;82;21055;-75
2022/03/19 04:03:44;;;;;;;19.43;8.90;;;;;;;-7.62;100.00;102514.55;1717954;82;21056;-74
2022/03/19 04:06:11;;;;;;;21.00;8.10;;;;;;;-7.64;100.00;102510.60;1745343;80;21106;-73
2022/03/19 04:08:37;;;;;;;19.57;8.10;;;;;;;-7.67;100.00;102517.15;1766332;80;20970;-74
2022/03/19 04:11:05;;;;;;;16.80;8.20;;;;;;;-7.69;100.00;102518.45;1766000;81;21548;-74
2022/03/19 04:13:35;;;;;;;18.13;7.90;;;;;;;-7.69;100.00;102509.70;1766453;81;20994;-74
2022/03/19 04:16:02;;;;;;;16.83;8.47;;;;;;;-7.68;100.00;102514.09;1766141;81;21069;-73
2022/03/19 04:18:29;;;;;;;19.07;8.30;;;;;;;-7.65;100.00;102514.09;1766122;81;21085;-75
2022/03/19 04:20:56;;;;;;;19.63;8.93;;;;;;;-7.62;100.00;102517.18;1766572;81;21026;-74
2022/03/19 04:23:23;;;;;;;18.93;8.57;;;;;;;-7.61;100.00;102519.81;1766217;81;21057;-74
2022/03/19 04:25:50;;;;;;;19.37;8.40;;;;;;;-7.58;100.00;102526.81;1766314;81;20990;-74
2022/03/19 04:28:17;;;;;;;19.83;8.63;;;;;;;-7.57;100.00;102524.64;1765926;81;21010;-74
2022/03/19 04:30:45;;;;;;;19.37;8.17;;;;;;;-7.55;100.00;102526.84;1766042;81;21081;-76
2022/03/19 04:33:13;;;;;;;23.57;11.10;;;;;;;-7.55;100.00;102528.16;1765858;81;21038;-74
2022/03/19 04:38:27;;;;;;;44.47;22.47;;;;;;;-7.53;100.00;102534.28;1761352;80;21049;-75
2022/03/19 04:40:55;;;;;;;33.37;13.97;;;;;;;-7.47;100.00;102539.13;1765884;80;21011;-75
2022/03/19 04:43:22;;;;;;;26.27;11.07;;;;;;;-7.42;100.00;102550.95;1770915;81;21071;-76
2022/03/19 04:45:49;;;;;;;38.50;22.10;;;;;;;-7.36;100.00;102554.94;1771004;81;20987;-74
2022/03/19 04:48:16;;;;;;;27.53;13.30;;;;;;;-7.30;100.00;102554.94;1736986;83;21019;-75
2022/03/19 04:50:46;;;;;;;25.33;11.00;;;;;;;-7.24;100.00;102551.48;1770912;81;21011;-74
2022/03/19 04:53:13;;;;;;;28.53;11.83;;;;;;;-7.18;100.00;102550.61;1771079;81;21027;-74
2022/03/19 04:55:40;;;;;;;27.73;12.10;;;;;;;-7.12;100.00;102551.52;1770744;81;21117;-74
2022/03/19 04:58:08;;;;;;;35.43;14.57;;;;;;;-7.05;100.00;102557.64;1772241;80;21026;-74
2022/03/19 05:00:37;;;;;;;27.73;10.87;;;;;;;-6.97;100.00;102558.98;1772636;81;21067;-74
2022/03/19 05:03:06;;;;;;;21.27;9.60;;;;;;;-6.90;100.00;102559.44;1772216;81;21027;-74
2022/03/19 05:05:34;;;;;;;44.83;17.87;;;;;;;-6.81;100.00;102566.02;1771443;81;21047;-74
2022/03/19 05:08:03;;;;;;;23.17;9.50;;;;;;;-6.75;100.00;102565.14;1770980;81;21058;-74
2022/03/19 05:13:17;;;;;;;24.30;10.07;;;;;;;-6.54;100.00;102576.13;1771288;81;21046;-74
2022/03/19 05:15:45;;;;;;;27.03;10.07;;;;;;;-6.43;100.00;102578.30;1771047;81;21027;-75
2022/03/19 05:18:12;;;;;;;24.53;8.80;;;;;;;-6.32;100.00;102579.20;1770692;81;20999;-75
2022/03/19 05:20:41;;;;;;;17.83;7.90;;;;;;;-6.23;100.00;102577.00;1736902;82;21647;-74
2022/03/19 05:23:08;;;;;;;18.57;7.40;;;;;;;-6.11;100.00;102581.35;1737089;83;20991;-75
2022/03/19 05:25:39;;;;;;;17.17;6.97;;;;;;;-5.96;100.00;102583.10;1738105;82;21017;-75
2022/03/19 05:28:07;;;;;;;17.47;7.23;;;;;;;-5.84;100.00;102592.27;1737727;83;21075;-75
2022/03/19 05:30:37;;;;;;;16.53;7.00;;;;;;;-5.77;100.00;102590.47;1737716;83;21075;-74
2022/03/19 05:33:04;;;;;;;16.17;7.07;;;;;;;-5.72;100.00;102586.97;1772247;81;21034;-74
2022/03/19 05:35:31;;;;;;;15.70;7.23;;;;;;;-5.65;100.00;102587.80;1772096;81;21091;-74
2022/03/19 05:38:00;;;;;;;19.17;7.53;;;;;;;-5.59;100.00;102592.20;1737917;82;21032;-75
2022/03/19 05:40:28;;;;;;;18.57;7.53;;;;;;;-5.51;100.00;102600.07;1754356;80;21469;-74
2022/03/19 05:42:55;;;;;;;36.90;17.60;;;;;;;-5.45;100.00;102600.94;1803744;80;21048;-74
2022/03/19 05:45:23;;;;;;;22.07;9.27;;;;;;;-5.32;100.00;102600.44;1803571;80;21009;-75
2022/03/19 05:47:50;;;;;;;16.43;6.93;;;;;;;-5.16;100.00;102606.52;1803690;80;21001;-75
2022/03/19 05:50:19;;;;;;;16.50;7.07;;;;;;;-5.06;100.00;102604.72;1803586;79;21017;-74
2022/03/19 05:52:48;;;;;;;14.20;6.70;;;;;;;-5.01;100.00;102610.41;1803640;79;20966;-74
2022/03/19 05:55:14;;;;;;;14.83;7.00;;;;;;;-4.99;100.00;102605.98;1803820;80;21032;-75
2022/03/19 05:57:43;;;;;;;18.27;7.30;;;;;;;-4.92;100.00;102605.94;1803651;80;21008;-75
2022/03/19 06:00:11;;;;;;;18.47;7.13;;;;;;;-4.80;100.00;102607.19;1803823;79;21025;-74
2022/03/19 06:02:42;;;;;;;16.53;7.00;;;;;;;-4.68;100.00;102611.52;1804031;80;21030;-75
2022/03/19 06:05:10;;;;;;;13.87;6.13;;;;;;;-4.57;100.00;102607.03;1803974;80;20957;-74
2022/03/19 06:07:38;;;;;;;15.97;6.53;;;;;;;-4.38;100.00;102614.38;1782468;80;21042;-74
2022/03/19 06:10:08;;;;;;;14.30;6.33;;;;;;;-4.20;100.00;102609.37;1771548;81;21047;-74
2022/03/19 06:12:37;;;;;;;15.73;7.03;;;;;;;-4.06;100.00;102614.09;1771254;81;21047;-74
2022/03/19 06:15:07;;;;;;;16.93;7.40;;;;;;;-3.92;100.00;102609.13;1771654;81;21042;-74
2022/03/19 06:17:35;;;;;;;13.33;6.73;;;;;;;-3.72;100.00;102612.89;1771419;81;21548;-73
2022/03/19 06:20:02;;;;;;;18.67;6.30;;;;;;;-3.54;100.00;102615.34;1771681;81;21058;-73
2022/03/19 06:22:30;;;;;;;20.17;7.37;;;;;;;-3.43;100.00;102620.51;1770933;81;21536;-74
2022/03/19 06:24:58;;;;;;;16.83;6.80;;;;;;;-3.41;100.00;102610.78;1770861;81;21497;-72
2022/03/19 06:27:25;;;;;;;15.50;6.87;;;;;;;-3.23;100.00;102615.42;1736433;82;21584;-71
2022/03/19 06:29:52;;;;;;;15.87;6.90;;;;;;;-2.95;100.00;102627.85;1736650;83;21070;-73
2022/03/19 06:32:20;;;;;;;12.23;5.53;;;;;;;-2.73;100.00;102621.33;1737031;83;21505;-72
2022/03/19 06:34:48;;;;;;;13.27;5.90;;;;;;;-2.48;100.00;102619.64;1737151;81;21063;-75
2022/03/19 06:37:21;;;;;;;12.23;5.93;;;;;;;-2.38;100.00;102627.01;1737480;83;21051;-76
2022/03/19 06:39:57;;;;;;;16.50;6.17;;;;;;;-2.36;100.00;102623.42;1739068;81;21007;-74
2022/03/19 06:42:25;;;;;;;19.57;6.63;;;;;;;-2.31;100.00;102626.87;1732709;83;21107;-75
2022/03/19 06:44:52;;;;;;;15.43;6.03;;;;;;;-2.35;100.00;102622.53;1731406;83;21106;-73
2022/03/19 06:47:19;;;;;;;14.80;5.80;;;;;;;-2.31;100.00;102615.41;1732889;83;21058;-75
2022/03/19 06:49:47;;;;;;;13.67;6.03;;;;;;;-2.16;100.00;102611.19;1732732;81;21088;-75
2022/03/19 06:52:14;;;;;;;15.97;6.80;;;;;;;-1.99;100.00;102612.66;1732704;83;20986;-72
2022/03/19 06:54:41;;;;;;;12.07;5.83;;;;;;;-1.90;100.00;102611.16;1733298;83;21083;-75
2022/03/19 06:57:08;;;;;;;12.30;5.63;;;;;;;-1.74;100.00;102609.09;1733141;83;21078;-75
2022/03/19 06:59:35;;;;;;;12.53;6.50;;;;;;;-1.63;100.00;102603.58;1733497;83;20993;-74
2022/03/19 07:02:02;;;;;;;14.83;6.10;;;;;;;-1.64;100.00;102606.70;1733081;81;21104;-75
2022/03/19 07:04:30;;;;;;;16.87;6.97;;;;;;;-1.64;100.00;102604.05;1733096;83;21026;-75
2022/03/19 07:06:57;;;;;;;15.50;6.87;;;;;;;-1.56;100.00;102606.11;1722695;83;20985;-75
2022/03/19 07:09:24;;;;;;;23.63;10.63;;;;;;;-1.35;100.00;102605.23;1704050;84;20984;-76
2022/03/19 07:11:51;;;;;;;14.23;6.83;;;;;;;-1.07;100.00;102603.34;1703968;84;21117;-75
2022/03/19 07:14:18;;;;;;;26.43;11.97;;;;;;;-0.75;100.00;102601.28;1703260;84;20972;-75
2022/03/19 07:16:47;;;;;;;44.47;20.63;;;;;;;-0.49;100.00;102597.15;1674828;86;21089;-74
2022/03/19 07:19:15;;;;;;;25.63;8.33;;;;;;;-0.26;100.00;102596.58;1673350;86;21087;-73
2022/03/19 07:21:42;;;;;;;17.37;6.60;;;;;;;-0.04;100.00;102596.89;1704150;84;21075;-76
2022/03/19 07:24:10;;;;;;;22.30;8.97;;;;;;;-0.08;100.00;102590.78;1675800;86;21066;-76
2022/03/19 07:26:37;;;;;;;18.57;7.37;;;;;;;0.05;100.00;102583.34;1704348;84;20968;-77
2022/03/19 07:29:03;;;;;;;16.60;6.60;;;;;;;0.31;100.00;102577.78;1675658;86;21531;-77
2022/03/19 07:31:32;;;;;;;15.53;7.00;;;;;;;0.51;100.00;102579.44;1703890;84;21035;-77
2022/03/19 07:33:59;;;;;;;16.93;6.90;;;;;;;0.69;100.00;102578.02;1675913;86;21077;-77
2022/03/19 07:36:27;;;;;;;13.47;6.70;;;;;;;0.79;100.00;102579.08;1703929;84;21008;-76
2022/03/19 07:38:56;;;;;;;12.23;5.43;;;;;;;0.95;100.00;102583.88;1675518;86;21058;-78
2022/03/19 07:44:07;;;;;;;19.07;6.50;;;;;;;0.81;97.48;102580.76;1696531;84;21102;-73
2022/03/19 07:46:44;;;;;;;21.43;7.13;;;;;;;0.75;94.50;102576.96;1736521;83;21033;-73
2022/03/19 07:49:12;;;;;;;12.27;6.10;;;;;;;0.62;92.40;102577.79;1737422;83;21498;-76
2022/03/19 07:51:39;;;;;;;11.43;5.90;;;;;;;0.61;92.48;102581.36;1736762;83;20998;-77
2022/03/19 07:54:06;;;;;;;14.13;6.20;;;;;;;0.56;91.68;102576.16;1763168;81;21052;-77
2022/03/19 07:56:34;;;;;;;17.47;6.63;;;;;;;0.53;90.84;102582.02;1762974;81;21038;-77
2022/03/19 07:59:01;;;;;;;11.30;5.67;;;;;;;0.55;91.72;102585.08;1763210;81;21520;-78
2022/03/19 08:01:28;;;;;;;10.83;5.77;;;;;;;0.62;91.13;102583.55;1763112;81;21069;-78
2022/03/19 08:03:55;;;;;;;11.73;5.67;;;;;;;0.63;90.12;102578.19;1763782;81;21041;-78
2022/03/19 08:06:22;;;;;;;12.70;6.50;;;;;;;0.73;90.71;102579.67;1763628;81;21013;-77
2022/03/19 08:08:49;;;;;;;13.17;6.37;;;;;;;0.90;92.04;102574.28;1762453;81;21013;-78
2022/03/19 08:11:18;;;;;;;12.43;6.03;;;;;;;1.20;93.07;102571.12;1761967;81;21080;-76
2022/03/19 08:13:46;;;;;;;15.77;6.17;;;;;;;1.36;89.73;102577.31;1762811;81;21484;-78
2022/03/19 08:16:13;;;;;;;21.13;6.87;;;;;;;1.28;88.91;102572.23;1762983;81;21018;-77
2022/03/19 08:18:41;;;;;;;17.90;6.87;;;;;;;1.41;90.73;102573.56;1762685;81;21034;-78
2022/03/19 08:21:10;;;;;;;13.03;6.13;;;;;;;1.69;91.73;102560.66;1762484;81;21033;-78
2022/03/19 08:23:37;;;;;;;13.23;5.87;;;;;;;2.10;93.35;102563.69;1739244;81;21081;-78
2022/03/19 08:26:04;;;;;;;12.30;6.30;;;;;;;2.51;91.40;102565.78;1762563;81;21128;-76
2022/03/19 08:28:33;;;;;;;15.17;7.30;;;;;;;2.67;89.77;102562.94;1762643;81;21089;-78
2022/03/19 08:31:02;;;;;;;15.47;6.27;;;;;;;2.95;88.74;102568.56;1762172;79;21117;-76
2022/03/19 08:33:30;;;;;;;12.73;5.50;;;;;;;3.00;81.35;102561.23;1762174;81;21116;-77
2022/03/19 08:35:58;;;;;;;21.33;8.10;;;;;;;2.78;80.31;102563.86;1762772;81;21037;-79
2022/03/19 08:41:10;;;;;;;13.63;6.27;;;;;;;3.15;82.23;102559.75;1782496;79;21057;-78
2022/03/19 08:43:37;;;;;;;15.23;6.37;;;;;;;3.36;79.39;102553.52;1794197;80;21021;-78
2022/03/19 08:46:05;;;;;;;13.33;6.20;;;;;;;3.42;77.85;102555.10;1794759;80;20990;-77
2022/03/19 08:48:33;;;;;;;49.47;8.47;;;;;;;3.49;76.05;102555.25;1794695;80;21064;-76
2022/03/19 08:51:39;;;;;;;15.50;6.63;;;;;;;3.59;72.44;102556.61;1795347;80;21002;-75
2022/03/19 08:53:30;;;;;;;19.13;6.30;;;;;;;3.59;71.50;102555.28;1790637;80;21010;-79
2022/03/19 08:55:57;;;;;;;14.90;6.57;;;;;;;3.78;71.77;102557.16;1795558;80;21061;-78
2022/03/19 08:58:24;;;;;;;13.43;5.33;;;;;;;3.83;67.82;102550.28;1795083;80;21032;-75
2022/03/19 09:00:51;;;;;;;9.27;4.83;;;;;;;3.77;65.75;102546.04;1795080;80;20954;-76
2022/03/19 09:03:33;;;;;;;11.77;5.13;;;;;;;3.67;62.86;102544.72;1794923;80;20982;-77
2022/03/19 09:06:00;;;;;;;11.60;5.20;;;;;;;3.40;60.85;102534.23;1744615;82;21131;-77
2022/03/19 09:08:27;;;;;;;12.20;5.30;;;;;;;3.09;59.43;102542.16;1698070;82;21045;-79
2022/03/19 09:10:56;;;;;;;12.57;5.93;;;;;;;2.86;59.89;102541.73;1697952;84;21021;-77
2022/03/19 09:13:24;;;;;;;13.97;6.20;;;;;;;2.89;61.03;102537.61;1693245;85;21519;-75
2022/03/19 09:15:51;;;;;;;11.07;5.70;;;;;;;3.09;61.53;102538.62;1697468;84;21068;-78
2022/03/19 09:18:20;;;;;;;11.67;5.13;;;;;;;3.37;61.44;102541.91;1697584;84;21163;-77
2022/03/19 09:20:47;;;;;;;13.57;5.50;;;;;;;3.52;60.46;102538.19;1697319;84;21078;-75
2022/03/19 09:23:14;;;;;;;16.40;6.23;;;;;;;3.72;59.88;102536.89;1696864;85;21042;-75
2022/03/19 09:25:42;;;;;;;12.90;6.20;;;;;;;3.92;60.17;102536.50;1697049;84;21002;-74
2022/03/19 09:28:09;;;;;;;15.47;6.20;;;;;;;4.18;59.81;102532.67;1698176;83;21026;-76
2022/03/19 09:30:36;;;;;;;19.50;9.97;;;;;;;4.42;59.05;102533.84;1697426;85;21077;-75
2022/03/19 09:33:03;;;;;;;14.90;6.70;;;;;;;4.52;57.01;102528.46;1696809;83;21094;-67
2022/03/19 09:35:30;;;;;;;42.73;20.20;;;;;;;4.62;56.30;102528.89;1696122;85;21045;-68
2022/03/19 09:37:57;;;;;;;27.50;13.03;;;;;;;4.79;55.64;102534.33;1696027;84;21468;-68
2022/03/19 09:40:24;;;;;;;17.30;6.93;;;;;;;4.98;54.65;102522.75;1699756;81;20994;-69
2022/03/19 09:42:53;;;;;;;22.57;11.53;;;;;;;5.10;53.45;102523.02;1764150;81;21056;-67
2022/03/19 09:45:22;;;;;;;20.30;8.83;;;;;;;5.22;53.39;102529.56;1764622;81;21057;-69
2022/03/19 09:47:51;;;;;;;21.33;8.70;;;;;;;5.45;53.14;102519.52;1764622;81;21002;-67
2022/03/19 09:50:18;;;;;;;20.40;8.43;;;;;;;5.56;51.19;102520.31;1763711;81;21049;-68
2022/03/19 09:52:45;;;;;;;20.03;9.53;;;;;;;5.56;50.66;102518.52;1763005;81;21111;-69
2022/03/19 09:55:15;;;;;;;18.73;8.97;;;;;;;5.70;50.75;102514.66;1763650;81;21041;-69
2022/03/19 09:57:42;;;;;;;17.10;7.50;;;;;;;5.78;49.97;102518.75;1763373;81;21090;-68
2022/03/19 10:00:10;;;;;;;18.30;9.03;;;;;;;5.90;50.62;102508.72;1763211;81;21080;-69
2022/03/19 10:03:02;;;;;;;17.60;6.67;;;;;;;6.07;48.10;102510.08;1787366;79;21051;-67
2022/03/19 10:08:39;;;;;;;14.47;5.97;;;;;;;5.89;46.67;102513.20;1683604;84;21022;-67
2022/03/19 10:11:10;;;;;;;19.73;7.03;;;;;;;5.95;46.29;102508.01;1646730;87;21623;-67
2022/03/19 10:13:45;;;;;;;21.20;9.70;;;;;;;5.79;43.95;102517.34;1647111;87;21045;-68
2022/03/19 10:16:28;;;;;;;19.40;7.47;;;;;;;5.82;45.32;102503.73;1595592;90;21180;-68
2022/03/19 10:19:00;;;;;;;30.33;13.67;;;;;;;5.93;45.19;102501.83;1569651;91;21099;-69
2022/03/19 10:21:29;;;;;;;53.63;24.00;;;;;;;6.15;45.31;102506.98;1569340;91;21110;-70
2022/03/19 10:23:59;;;;;;;18.20;7.20;;;;;;;6.34;45.29;102502.83;1570568;91;21066;-68
2022/03/19 10:26:29;;;;;;;140.77;61.03;;;;;;;6.54;44.70;102495.49;1541571;93;21157;-67
2022/03/19 10:29:02;;;;;;;18.37;7.80;;;;;;;6.72;44.28;102491.77;1517199;95;21074;-69
2022/03/19 10:31:40;;;;;;;9.13;4.80;;;;;;;6.82;43.16;102503.75;1517268;93;21130;-70
2022/03/19 10:34:08;;;;;;;21.23;10.40;;;;;;;6.67;40.59;102497.87;1517106;95;21109;-69
2022/03/19 10:36:41;;;;;;;23.30;9.80;;;;;;;6.37;40.78;102492.38;1517001;95;21130;-69
2022/03/19 10:39:21;;;;;;;;;;;;;;;6.40;41.14;102492.22;1519790;95;21649;-67
2022/03/19 10:41:50;;;;;;;12.43;5.13;;;;;;;6.59;41.76;102491.59;1517203;94;20466;-70
2022/03/19 10:44:23;;;;;;;13.20;5.73;;;;;;;6.69;39.89;102493.77;1573803;91;21142;-69
2022/03/19 10:47:02;;;;;;;14.27;6.10;;;;;;;6.39;37.95;102488.67;1573520;91;21168;-70
2022/03/19 10:49:30;;;;;;;26.17;11.37;;;;;;;5.99;37.73;102488.13;1573711;91;21145;-69
2022/03/19 10:52:07;;;;;;;10.73;5.20;;;;;;;5.94;38.61;102498.69;1574310;91;21170;-68
2022/03/19 10:54:34;;;;;;;9.17;4.87;;;;;;;6.03;37.97;102496.40;1573719;90;21150;-68
2022/03/19 10:57:03;;;;;;;18.80;8.00;;;;;;;5.78;37.27;102492.77;1574294;91;21130;-69
2022/03/19 10:59:31;;;;;;;16.07;7.73;;;;;;;5.71;38.67;102497.58;1573214;91;21087;-71
2022/03/19 11:02:00;;;;;;;12.90;5.23;;;;;;;5.91;39.33;102492.98;1573348;91;21131;-69
2022/03/19 11:04:27;;;;;;;18.57;9.20;;;;;;;5.97;38.01;102486.00;1563358;89;21110;-68
2022/03/19 11:06:54;;;;;;;15.60;7.17;;;;;;;5.99;38.76;102483.23;1613498;88;21025;-69
2022/03/19 11:09:24;;;;;;;14.80;6.00;;;;;;;6.14;38.36;102478.36;1635029;88;21140;-71
2022/03/19 11:11:57;;;;;;;13.47;5.73;;;;;;;6.27;37.70;102470.53;1637692;86;21122;-68
2022/03/19 11:14:27;;;;;;;13.28;4.90;;;;;;;6.32;36.32;102468.46;1674179;84;21235;-70
2022/03/19 11:17:25;;;;;;;12.57;5.60;;;;;;;6.13;34.39;102470.41;1698928;84;21034;-70
2022/03/19 11:19:59;;;;;;;14.63;5.77;;;;;;;5.82;34.95;102466.63;1685428;84;21067;-69
2022/03/19 11:22:27;;;;;;;13.90;5.20;;;;;;;5.59;35.20;102467.34;1710457;84;21050;-67
2022/03/19 11:25:09;;;;;;;10.27;5.23;;;;;;;5.35;35.36;102471.28;1709604;84;21122;-68
2022/03/19 11:27:38;;;;;;;13.47;5.20;;;;;;;5.18;36.22;102468.98;1708623;84;21078;-69
2022/03/19 11:30:08;;;;;;;15.07;5.13;;;;;;;5.30;36.69;102464.83;1708616;84;21571;-69
2022/03/19 11:32:35;;;;;;;16.20;6.80;;;;;;;5.24;36.52;102459.75;1708744;84;21026;-68
2022/03/19 11:35:03;;;;;;;73.57;38.60;;;;;;;5.25;36.72;102456.13;1708108;84;21149;-69
2022/03/19 11:38:11;;;;;;;23.83;13.77;;;;;;;5.34;37.46;102452.98;1660557;84;21595;-69